CheckWX is a tool to help pilots better visualize weather data.  It is not intended as a substitute for an official pre-flight weather briefing.

02:36:21 UTC

EGQK METAR
RAF Kinloss Airport
Kinloss, United Kingdom
Current

46 mins ago

EGQK 230150Z AUTO 10006KT 9999 FEW140/// BKN220/// 11/03 Q1004
Observed
Apr-23 @ 01:50 UTC
Wind
  • 100° at 6 KTS
Visibility
10,000+ meters
Flight Rules
VFR
Cloud Levels
  • Few at 14,000' AGL
  • Broken at 22,000' AGL
Temperature
11°C / 52°F
Dewpoint
C / 37°F
Humidity
58%
Altimeter
29.65" Hg
Pressure
1003.92 hPa
Previous

2 hours ago

EGQK 230050Z AUTO 10006KT 9999 BKN140/// 11/02 Q1004
Observed
Apr-23 @ 00:50 UTC
Wind
  • 100° at 6 KTS
Visibility
10,000+ meters
Flight Rules
VFR
Cloud Levels
  • Broken at 14,000' AGL
Temperature
11°C / 52°F
Dewpoint
C / 36°F
Humidity
54%
Altimeter
29.65" Hg
Pressure
1003.92 hPa
Previous

3 hours ago

EGQK 222350Z AUTO 12010KT 9999 BKN140/// 14/02 Q1004
Observed
Apr-22 @ 23:50 UTC
Wind
  • 120° at 10 KTS
Visibility
10,000+ meters
Flight Rules
VFR
Cloud Levels
  • Broken at 14,000' AGL
Temperature
14°C / 57°F
Dewpoint
C / 36°F
Humidity
44%
Altimeter
29.65" Hg
Pressure
1003.92 hPa